sensor_id;sensor_type;location;lat;lon;timestamp;temperature;humidity
13052;DHT22;6592;47.484;9.726;2023-01-04T00:02:01;6.50;99.90
13052;DHT22;6592;47.484;9.726;2023-01-04T00:04:30;6.50;99.90
13052;DHT22;6592;47.484;9.726;2023-01-04T00:06:58;6.50;99.90
13052;DHT22;6592;47.484;9.726;2023-01-04T00:09:26;6.50;99.90
13052;DHT22;6592;47.484;9.726;2023-01-04T00:11:56;6.50;99.90
13052;DHT22;6592;47.484;9.726;2023-01-04T00:14:24;6.60;99.90
13052;DHT22;6592;47.484;9.726;2023-01-04T00:16:53;6.60;99.90
13052;DHT22;6592;47.484;9.726;2023-01-04T00:19:21;6.60;99.90
13052;DHT22;6592;47.484;9.726;2023-01-04T00:21:50;6.50;99.90
13052;DHT22;6592;47.484;9.726;2023-01-04T00:24:19;6.40;99.90
13052;DHT22;6592;47.484;9.726;2023-01-04T00:26:47;6.50;99.90
13052;DHT22;6592;47.484;9.726;2023-01-04T00:29:17;6.40;99.90
13052;DHT22;6592;47.484;9.726;2023-01-04T00:31:45;6.40;99.90
13052;DHT22;6592;47.484;9.726;2023-01-04T00:34:15;6.30;99.90
13052;DHT22;6592;47.484;9.726;2023-01-04T00:36:44;6.20;99.90
13052;DHT22;6592;47.484;9.726;2023-01-04T00:39:14;6.10;99.90
13052;DHT22;6592;47.484;9.726;2023-01-04T00:41:44;6.00;99.90
13052;DHT22;6592;47.484;9.726;2023-01-04T00:44:31;6.00;99.90
13052;DHT22;6592;47.484;9.726;2023-01-04T00:47:02;6.00;99.90
13052;DHT22;6592;47.484;9.726;2023-01-04T00:49:31;5.90;99.90
13052;DHT22;6592;47.484;9.726;2023-01-04T00:51:59;5.90;99.90
13052;DHT22;6592;47.484;9.726;2023-01-04T00:54:28;6.00;99.90
13052;DHT22;6592;47.484;9.726;2023-01-04T00:56:57;6.00;99.90
13052;DHT22;6592;47.484;9.726;2023-01-04T00:59:25;6.00;99.90
13052;DHT22;6592;47.484;9.726;2023-01-04T01:01:55;6.00;99.90
13052;DHT22;6592;47.484;9.726;2023-01-04T01:04:24;6.00;99.90
13052;DHT22;6592;47.484;9.726;2023-01-04T01:06:53;6.00;99.90
13052;DHT22;6592;47.484;9.726;2023-01-04T01:09:21;6.00;99.90
13052;DHT22;6592;47.484;9.726;2023-01-04T01:11:50;6.00;99.90
13052;DHT22;6592;47.484;9.726;2023-01-04T01:14:22;6.00;99.90
13052;DHT22;6592;47.484;9.726;2023-01-04T01:16:51;6.00;99.90
13052;DHT22;6592;47.484;9.726;2023-01-04T01:19:26;6.00;99.90
13052;DHT22;6592;47.484;9.726;2023-01-04T01:21:55;6.00;99.90
13052;DHT22;6592;47.484;9.726;2023-01-04T01:24:24;6.00;99.90
13052;DHT22;6592;47.484;9.726;2023-01-04T01:26:53;6.00;99.90
13052;DHT22;6592;47.484;9.726;2023-01-04T01:29:22;6.00;99.90
13052;DHT22;6592;47.484;9.726;2023-01-04T01:31:50;6.10;99.90
13052;DHT22;6592;47.484;9.726;2023-01-04T01:34:20;6.10;99.90
13052;DHT22;6592;47.484;9.726;2023-01-04T01:36:50;6.00;99.90
13052;DHT22;6592;47.484;9.726;2023-01-04T01:39:18;6.00;99.90
13052;DHT22;6592;47.484;9.726;2023-01-04T01:41:46;6.00;99.90
13052;DHT22;6592;47.484;9.726;2023-01-04T01:47:39;6.00;99.90
13052;DHT22;6592;47.484;9.726;2023-01-04T01:50:22;5.80;99.90
13052;DHT22;6592;47.484;9.726;2023-01-04T01:52:53;5.80;99.90
13052;DHT22;6592;47.484;9.726;2023-01-04T01:55:23;5.80;99.90
13052;DHT22;6592;47.484;9.726;2023-01-04T01:57:52;5.80;99.90
13052;DHT22;6592;47.484;9.726;2023-01-04T02:00:21;5.70;99.90
13052;DHT22;6592;47.484;9.726;2023-01-04T02:02:57;5.60;99.90
13052;DHT22;6592;47.484;9.726;2023-01-04T02:05:27;5.50;99.90
13052;DHT22;6592;47.484;9.726;2023-01-04T02:07:58;5.50;99.90
13052;DHT22;6592;47.484;9.726;2023-01-04T02:10:27;5.60;99.90
13052;DHT22;6592;47.484;9.726;2023-01-04T02:13:05;5.50;99.90
13052;DHT22;6592;47.484;9.726;2023-01-04T02:15:43;5.50;99.90
13052;DHT22;6592;47.484;9.726;2023-01-04T02:18:20;5.40;99.90
13052;DHT22;6592;47.484;9.726;2023-01-04T02:20:56;5.40;99.90
13052;DHT22;6592;47.484;9.726;2023-01-04T02:23:57;5.40;99.90
13052;DHT22;6592;47.484;9.726;2023-01-04T02:30:24;5.40;99.90
13052;DHT22;6592;47.484;9.726;2023-01-04T02:33:09;5.40;99.90
13052;DHT22;6592;47.484;9.726;2023-01-04T02:35:46;5.40;99.90
13052;DHT22;6592;47.484;9.726;2023-01-04T02:38:24;5.30;99.90
13052;DHT22;6592;47.484;9.726;2023-01-04T02:41:02;5.30;99.90
13052;DHT22;6592;47.484;9.726;2023-01-04T02:43:37;5.30;99.90
13052;DHT22;6592;47.484;9.726;2023-01-04T02:46:27;5.30;99.90
13052;DHT22;6592;47.484;9.726;2023-01-04T02:49:00;5.30;99.90
13052;DHT22;6592;47.484;9.726;2023-01-04T02:51:46;5.40;99.90
13052;DHT22;6592;47.484;9.726;2023-01-04T02:54:16;5.40;99.90
13052;DHT22;6592;47.484;9.726;2023-01-04T02:57:19;5.50;99.90
13052;DHT22;6592;47.484;9.726;2023-01-04T03:00:16;5.50;99.90
13052;DHT22;6592;47.484;9.726;2023-01-04T03:03:15;5.50;99.90
13052;DHT22;6592;47.484;9.726;2023-01-04T03:06:08;5.50;99.90
13052;DHT22;6592;47.484;9.726;2023-01-04T03:08:50;5.50;99.90
13052;DHT22;6592;47.484;9.726;2023-01-04T03:11:22;5.50;99.90
13052;DHT22;6592;47.484;9.726;2023-01-04T03:14:13;5.50;99.90
13052;DHT22;6592;47.484;9.726;2023-01-04T03:17:02;5.50;99.90
13052;DHT22;6592;47.484;9.726;2023-01-04T03:19:33;5.50;99.90
13052;DHT22;6592;47.484;9.726;2023-01-04T03:22:29;5.60;99.90
13052;DHT22;6592;47.484;9.726;2023-01-04T03:25:21;5.60;99.90
13052;DHT22;6592;47.484;9.726;2023-01-04T03:28:09;5.60;99.90
13052;DHT22;6592;47.484;9.726;2023-01-04T03:31:00;5.60;99.90
13052;DHT22;6592;47.484;9.726;2023-01-04T03:33:47;5.70;99.90
13052;DHT22;6592;47.484;9.726;2023-01-04T03:36:53;5.70;99.90
13052;DHT22;6592;47.484;9.726;2023-01-04T03:39:42;5.70;99.90
13052;DHT22;6592;47.484;9.726;2023-01-04T03:42:40;5.70;99.90
13052;DHT22;6592;47.484;9.726;2023-01-04T03:45:30;5.70;99.90
13052;DHT22;6592;47.484;9.726;2023-01-04T03:48:20;5.70;99.90
13052;DHT22;6592;47.484;9.726;2023-01-04T03:51:03;5.70;99.90
13052;DHT22;6592;47.484;9.726;2023-01-04T03:53:36;5.80;99.90
13052;DHT22;6592;47.484;9.726;2023-01-04T03:56:07;5.70;99.90
13052;DHT22;6592;47.484;9.726;2023-01-04T03:58:37;5.80;99.90
13052;DHT22;6592;47.484;9.726;2023-01-04T04:01:06;5.80;99.90
13052;DHT22;6592;47.484;9.726;2023-01-04T04:03:34;5.80;99.90
13052;DHT22;6592;47.484;9.726;2023-01-04T04:06:20;5.80;99.90
13052;DHT22;6592;47.484;9.726;2023-01-04T04:09:06;5.80;99.90
13052;DHT22;6592;47.484;9.726;2023-01-04T04:11:35;5.80;99.90
13052;DHT22;6592;47.484;9.726;2023-01-04T04:14:04;5.70;99.90
13052;DHT22;6592;47.484;9.726;2023-01-04T04:16:32;5.80;99.90
13052;DHT22;6592;47.484;9.726;2023-01-04T04:19:00;5.70;99.90
13052;DHT22;6592;47.484;9.726;2023-01-04T04:21:34;5.80;99.90
13052;DHT22;6592;47.484;9.726;2023-01-04T04:24:04;5.90;99.90
13052;DHT22;6592;47.484;9.726;2023-01-04T04:26:32;5.80;99.90
13052;DHT22;6592;47.484;9.726;2023-01-04T04:29:02;5.80;99.90
13052;DHT22;6592;47.484;9.726;2023-01-04T04:31:30;5.70;99.90
13052;DHT22;6592;47.484;9.726;2023-01-04T04:33:58;5.70;99.90
13052;DHT22;6592;47.484;9.726;2023-01-04T04:36:27;5.70;99.90
13052;DHT22;6592;47.484;9.726;2023-01-04T04:38:55;5.60;99.90
13052;DHT22;6592;47.484;9.726;2023-01-04T04:41:23;5.50;99.90
13052;DHT22;6592;47.484;9.726;2023-01-04T04:44:10;5.50;99.90
13052;DHT22;6592;47.484;9.726;2023-01-04T04:46:40;5.50;99.90
13052;DHT22;6592;47.484;9.726;2023-01-04T04:49:09;5.40;99.90
13052;DHT22;6592;47.484;9.726;2023-01-04T04:51:38;5.40;99.90
13052;DHT22;6592;47.484;9.726;2023-01-04T04:54:07;5.30;99.90
13052;DHT22;6592;47.484;9.726;2023-01-04T04:56:36;5.30;99.90
13052;DHT22;6592;47.484;9.726;2023-01-04T04:59:05;5.30;99.90
13052;DHT22;6592;47.484;9.726;2023-01-04T05:01:35;5.30;99.90
13052;DHT22;6592;47.484;9.726;2023-01-04T05:04:03;5.20;99.90
13052;DHT22;6592;47.484;9.726;2023-01-04T05:06:33;5.20;99.90
13052;DHT22;6592;47.484;9.726;2023-01-04T05:09:01;5.10;99.90
13052;DHT22;6592;47.484;9.726;2023-01-04T05:11:30;5.00;99.90
13052;DHT22;6592;47.484;9.726;2023-01-04T05:14:15;5.00;99.90
13052;DHT22;6592;47.484;9.726;2023-01-04T05:16:45;5.00;99.90
13052;DHT22;6592;47.484;9.726;2023-01-04T05:19:14;5.00;99.90
13052;DHT22;6592;47.484;9.726;2023-01-04T05:21:42;4.90;99.90
13052;DHT22;6592;47.484;9.726;2023-01-04T05:24:11;4.90;99.90
13052;DHT22;6592;47.484;9.726;2023-01-04T05:26:39;4.90;99.90
13052;DHT22;6592;47.484;9.726;2023-01-04T05:29:08;4.90;99.90
13052;DHT22;6592;47.484;9.726;2023-01-04T05:31:57;4.90;99.90
13052;DHT22;6592;47.484;9.726;2023-01-04T05:34:25;5.00;99.90
13052;DHT22;6592;47.484;9.726;2023-01-04T05:36:53;5.10;99.90
13052;DHT22;6592;47.484;9.726;2023-01-04T05:39:22;5.00;99.90
13052;DHT22;6592;47.484;9.726;2023-01-04T05:41:50;4.90;99.90
13052;DHT22;6592;47.484;9.726;2023-01-04T05:44:35;4.90;99.90
13052;DHT22;6592;47.484;9.726;2023-01-04T05:47:05;4.90;99.90
13052;DHT22;6592;47.484;9.726;2023-01-04T05:49:40;4.90;99.90
13052;DHT22;6592;47.484;9.726;2023-01-04T05:52:09;4.90;99.90
13052;DHT22;6592;47.484;9.726;2023-01-04T05:54:37;4.80;99.90
13052;DHT22;6592;47.484;9.726;2023-01-04T05:57:06;4.80;99.90
13052;DHT22;6592;47.484;9.726;2023-01-04T05:59:34;4.80;99.90
13052;DHT22;6592;47.484;9.726;2023-01-04T06:02:14;4.80;99.90
13052;DHT22;6592;47.484;9.726;2023-01-04T06:04:43;4.80;99.90
13052;DHT22;6592;47.484;9.726;2023-01-04T06:07:11;4.80;99.90
13052;DHT22;6592;47.484;9.726;2023-01-04T06:09:40;4.80;99.90
13052;DHT22;6592;47.484;9.726;2023-01-04T06:12:08;4.80;99.90
13052;DHT22;6592;47.484;9.726;2023-01-04T06:14:37;4.70;99.90
13052;DHT22;6592;47.484;9.726;2023-01-04T06:17:05;4.80;99.90
13052;DHT22;6592;47.484;9.726;2023-01-04T06:19:35;4.90;99.90
13052;DHT22;6592;47.484;9.726;2023-01-04T06:22:04;5.00;99.90
13052;DHT22;6592;47.484;9.726;2023-01-04T06:24:32;4.90;99.90
13052;DHT22;6592;47.484;9.726;2023-01-04T06:27:01;4.80;99.90
13052;DHT22;6592;47.484;9.726;2023-01-04T06:29:29;4.80;99.90
13052;DHT22;6592;47.484;9.726;2023-01-04T06:31:57;4.90;99.90
13052;DHT22;6592;47.484;9.726;2023-01-04T06:34:26;4.90;99.90
13052;DHT22;6592;47.484;9.726;2023-01-04T06:36:58;4.90;99.90
13052;DHT22;6592;47.484;9.726;2023-01-04T06:39:26;4.90;99.90
13052;DHT22;6592;47.484;9.726;2023-01-04T06:41:55;4.90;99.90
13052;DHT22;6592;47.484;9.726;2023-01-04T06:44:31;4.90;99.90
13052;DHT22;6592;47.484;9.726;2023-01-04T06:47:00;4.80;99.90
13052;DHT22;6592;47.484;9.726;2023-01-04T06:49:28;4.90;99.90
13052;DHT22;6592;47.484;9.726;2023-01-04T06:51:58;4.80;99.90
13052;DHT22;6592;47.484;9.726;2023-01-04T06:54:26;4.80;99.90
13052;DHT22;6592;47.484;9.726;2023-01-04T06:56:55;4.80;99.90
13052;DHT22;6592;47.484;9.726;2023-01-04T06:59:23;4.90;99.90
13052;DHT22;6592;47.484;9.726;2023-01-04T07:01:52;4.90;99.90
13052;DHT22;6592;47.484;9.726;2023-01-04T07:04:20;4.90;99.90
13052;DHT22;6592;47.484;9.726;2023-01-04T07:06:49;4.80;99.90
13052;DHT22;6592;47.484;9.726;2023-01-04T07:09:19;4.70;99.90
13052;DHT22;6592;47.484;9.726;2023-01-04T07:11:47;4.70;99.90
13052;DHT22;6592;47.484;9.726;2023-01-04T07:14:15;4.70;99.90
13052;DHT22;6592;47.484;9.726;2023-01-04T07:16:44;4.60;99.90
13052;DHT22;6592;47.484;9.726;2023-01-04T07:19:12;4.60;99.90
13052;DHT22;6592;47.484;9.726;2023-01-04T07:21:41;4.60;99.90
13052;DHT22;6592;47.484;9.726;2023-01-04T07:24:09;4.60;99.90
13052;DHT22;6592;47.484;9.726;2023-01-04T07:26:39;4.60;99.90
13052;DHT22;6592;47.484;9.726;2023-01-04T07:29:09;4.60;99.90
13052;DHT22;6592;47.484;9.726;2023-01-04T07:31:44;4.70;99.90
13052;DHT22;6592;47.484;9.726;2023-01-04T07:34:14;4.70;99.90
13052;DHT22;6592;47.484;9.726;2023-01-04T07:36:43;4.80;99.90
13052;DHT22;6592;47.484;9.726;2023-01-04T07:39:11;4.90;99.90
13052;DHT22;6592;47.484;9.726;2023-01-04T07:41:41;5.00;99.90
13052;DHT22;6592;47.484;9.726;2023-01-04T07:44:10;5.00;99.90
13052;DHT22;6592;47.484;9.726;2023-01-04T07:46:39;5.10;99.90
13052;DHT22;6592;47.484;9.726;2023-01-04T07:49:10;5.30;99.90
13052;DHT22;6592;47.484;9.726;2023-01-04T07:51:44;5.30;99.90
13052;DHT22;6592;47.484;9.726;2023-01-04T07:54:13;5.70;99.90
13052;DHT22;6592;47.484;9.726;2023-01-04T07:56:43;6.70;99.90
13052;DHT22;6592;47.484;9.726;2023-01-04T07:59:13;7.50;99.90
13052;DHT22;6592;47.484;9.726;2023-01-04T08:01:41;7.70;99.90
13052;DHT22;6592;47.484;9.726;2023-01-04T08:04:11;7.50;99.90
13052;DHT22;6592;47.484;9.726;2023-01-04T08:06:42;7.20;99.90
13052;DHT22;6592;47.484;9.726;2023-01-04T08:09:12;6.80;99.90
13052;DHT22;6592;47.484;9.726;2023-01-04T08:11:42;6.60;99.90
13052;DHT22;6592;47.484;9.726;2023-01-04T08:14:11;6.40;99.90
13052;DHT22;6592;47.484;9.726;2023-01-04T08:16:40;6.50;99.90
13052;DHT22;6592;47.484;9.726;2023-01-04T08:19:12;6.40;99.90
13052;DHT22;6592;47.484;9.726;2023-01-04T08:21:41;6.50;99.90
13052;DHT22;6592;47.484;9.726;2023-01-04T08:24:12;6.60;99.90
13052;DHT22;6592;47.484;9.726;2023-01-04T08:26:42;7.00;99.90
13052;DHT22;6592;47.484;9.726;2023-01-04T08:29:12;7.50;99.90
13052;DHT22;6592;47.484;9.726;2023-01-04T08:31:40;8.20;99.90
13052;DHT22;6592;47.484;9.726;2023-01-04T08:34:09;8.40;99.90
13052;DHT22;6592;47.484;9.726;2023-01-04T08:36:44;8.40;99.90
13052;DHT22;6592;47.484;9.726;2023-01-04T08:39:13;8.10;99.90
13052;DHT22;6592;47.484;9.726;2023-01-04T08:41:43;8.10;99.90
13052;DHT22;6592;47.484;9.726;2023-01-04T08:44:41;8.20;99.90
13052;DHT22;6592;47.484;9.726;2023-01-04T08:47:09;7.90;99.90
13052;DHT22;6592;47.484;9.726;2023-01-04T08:49:37;7.80;99.90
13052;DHT22;6592;47.484;9.726;2023-01-04T08:52:06;7.80;99.90
13052;DHT22;6592;47.484;9.726;2023-01-04T08:54:35;7.80;99.90
13052;DHT22;6592;47.484;9.726;2023-01-04T08:57:04;7.90;99.90
13052;DHT22;6592;47.484;9.726;2023-01-04T08:59:33;7.90;99.90
13052;DHT22;6592;47.484;9.726;2023-01-04T09:02:01;7.90;99.90
13052;DHT22;6592;47.484;9.726;2023-01-04T09:04:32;8.10;99.90
13052;DHT22;6592;47.484;9.726;2023-01-04T09:07:00;8.10;99.90
13052;DHT22;6592;47.484;9.726;2023-01-04T09:09:29;8.20;99.90
13052;DHT22;6592;47.484;9.726;2023-01-04T09:11:57;8.20;99.90
13052;DHT22;6592;47.484;9.726;2023-01-04T09:14:27;8.30;99.90
13052;DHT22;6592;47.484;9.726;2023-01-04T09:16:56;8.40;99.90
13052;DHT22;6592;47.484;9.726;2023-01-04T09:19:24;8.50;99.90
13052;DHT22;6592;47.484;9.726;2023-01-04T09:21:52;8.60;99.90
13052;DHT22;6592;47.484;9.726;2023-01-04T09:24:21;8.70;99.90
13052;DHT22;6592;47.484;9.726;2023-01-04T09:26:49;8.80;99.90
13052;DHT22;6592;47.484;9.726;2023-01-04T09:29:18;9.00;99.90
13052;DHT22;6592;47.484;9.726;2023-01-04T09:31:48;8.90;99.90
13052;DHT22;6592;47.484;9.726;2023-01-04T09:34:16;9.00;99.90
13052;DHT22;6592;47.484;9.726;2023-01-04T09:36:46;9.00;99.90
13052;DHT22;6592;47.484;9.726;2023-01-04T09:39:15;9.00;99.90
13052;DHT22;6592;47.484;9.726;2023-01-04T09:41:55;9.10;99.90
13052;DHT22;6592;47.484;9.726;2023-01-04T09:44:33;9.00;99.90
13052;DHT22;6592;47.484;9.726;2023-01-04T09:47:29;8.90;99.90
13052;DHT22;6592;47.484;9.726;2023-01-04T09:50:03;8.80;99.90
13052;DHT22;6592;47.484;9.726;2023-01-04T09:52:48;8.80;99.90
13052;DHT22;6592;47.484;9.726;2023-01-04T09:55:21;8.70;99.90
13052;DHT22;6592;47.484;9.726;2023-01-04T09:58:24;8.60;99.90
13052;DHT22;6592;47.484;9.726;2023-01-04T10:00:59;8.50;99.90
13052;DHT22;6592;47.484;9.726;2023-01-04T10:03:32;8.60;99.90
13052;DHT22;6592;47.484;9.726;2023-01-04T10:06:02;8.50;99.90
13052;DHT22;6592;47.484;9.726;2023-01-04T10:08:30;8.60;99.90
13052;DHT22;6592;47.484;9.726;2023-01-04T10:11:09;8.70;99.90
13052;DHT22;6592;47.484;9.726;2023-01-04T10:13:51;8.50;99.90
13052;DHT22;6592;47.484;9.726;2023-01-04T10:16:33;8.40;99.90
13052;DHT22;6592;47.484;9.726;2023-01-04T10:19:37;8.50;99.90
13052;DHT22;6592;47.484;9.726;2023-01-04T10:22:35;8.50;99.90
13052;DHT22;6592;47.484;9.726;2023-01-04T10:25:22;8.40;99.90
13052;DHT22;6592;47.484;9.726;2023-01-04T10:28:02;8.40;99.90
13052;DHT22;6592;47.484;9.726;2023-01-04T10:30:39;8.40;99.90
13052;DHT22;6592;47.484;9.726;2023-01-04T10:33:12;8.50;99.90
13052;DHT22;6592;47.484;9.726;2023-01-04T10:35:43;8.50;99.90
13052;DHT22;6592;47.484;9.726;2023-01-04T10:38:16;8.50;99.90
13052;DHT22;6592;47.484;9.726;2023-01-04T10:40:46;8.60;99.90
13052;DHT22;6592;47.484;9.726;2023-01-04T10:43:23;8.70;99.90
13052;DHT22;6592;47.484;9.726;2023-01-04T10:45:59;8.70;99.90
13052;DHT22;6592;47.484;9.726;2023-01-04T10:48:36;8.70;99.90
13052;DHT22;6592;47.484;9.726;2023-01-04T10:51:10;8.70;99.90
13052;DHT22;6592;47.484;9.726;2023-01-04T10:53:45;8.70;99.90
13052;DHT22;6592;47.484;9.726;2023-01-04T10:56:22;8.70;99.90
13052;DHT22;6592;47.484;9.726;2023-01-04T10:58:59;8.60;99.90
13052;DHT22;6592;47.484;9.726;2023-01-04T11:01:34;8.60;99.90
13052;DHT22;6592;47.484;9.726;2023-01-04T11:04:08;8.80;99.90
13052;DHT22;6592;47.484;9.726;2023-01-04T11:06:43;8.80;99.90
13052;DHT22;6592;47.484;9.726;2023-01-04T11:09:15;8.80;99.90
13052;DHT22;6592;47.484;9.726;2023-01-04T11:11:52;8.90;99.90
13052;DHT22;6592;47.484;9.726;2023-01-04T11:14:22;8.90;99.90
13052;DHT22;6592;47.484;9.726;2023-01-04T11:16:57;8.90;99.90
13052;DHT22;6592;47.484;9.726;2023-01-04T11:19:27;8.90;99.90
13052;DHT22;6592;47.484;9.726;2023-01-04T11:22:01;8.80;99.90
13052;DHT22;6592;47.484;9.726;2023-01-04T11:24:33;8.80;99.90
13052;DHT22;6592;47.484;9.726;2023-01-04T11:27:05;8.70;99.90
13052;DHT22;6592;47.484;9.726;2023-01-04T11:29:38;8.60;99.90
13052;DHT22;6592;47.484;9.726;2023-01-04T11:32:14;8.60;99.90
13052;DHT22;6592;47.484;9.726;2023-01-04T11:34:49;8.60;99.90
13052;DHT22;6592;47.484;9.726;2023-01-04T11:37:29;8.60;99.90
13052;DHT22;6592;47.484;9.726;2023-01-04T11:40:20;8.60;99.90
13052;DHT22;6592;47.484;9.726;2023-01-04T11:42:50;8.50;99.90
13052;DHT22;6592;47.484;9.726;2023-01-04T11:45:22;8.50;99.90
13052;DHT22;6592;47.484;9.726;2023-01-04T11:47:52;8.50;99.90
13052;DHT22;6592;47.484;9.726;2023-01-04T11:50:34;8.50;99.90
13052;DHT22;6592;47.484;9.726;2023-01-04T11:53:25;8.50;99.90
13052;DHT22;6592;47.484;9.726;2023-01-04T11:56:08;8.50;99.90
13052;DHT22;6592;47.484;9.726;2023-01-04T11:58:36;8.60;99.90
13052;DHT22;6592;47.484;9.726;2023-01-04T12:01:05;8.70;99.90
13052;DHT22;6592;47.484;9.726;2023-01-04T12:03:45;8.80;99.90
13052;DHT22;6592;47.484;9.726;2023-01-04T12:06:16;8.90;99.90
13052;DHT22;6592;47.484;9.726;2023-01-04T12:08:47;8.90;99.90
13052;DHT22;6592;47.484;9.726;2023-01-04T12:11:25;8.90;99.90
13052;DHT22;6592;47.484;9.726;2023-01-04T12:13:56;8.90;99.90
13052;DHT22;6592;47.484;9.726;2023-01-04T12:16:33;8.90;99.90
13052;DHT22;6592;47.484;9.726;2023-01-04T12:19:13;9.00;99.90
13052;DHT22;6592;47.484;9.726;2023-01-04T12:21:44;9.00;99.90
13052;DHT22;6592;47.484;9.726;2023-01-04T12:24:17;9.10;99.90
13052;DHT22;6592;47.484;9.726;2023-01-04T12:26:48;9.10;99.90
13052;DHT22;6592;47.484;9.726;2023-01-04T12:29:42;9.10;99.90
13052;DHT22;6592;47.484;9.726;2023-01-04T12:32:39;9.20;99.90
13052;DHT22;6592;47.484;9.726;2023-01-04T12:38:58;9.20;99.90
13052;DHT22;6592;47.484;9.726;2023-01-04T12:45:02;9.20;99.90
13052;DHT22;6592;47.484;9.726;2023-01-04T12:47:40;9.10;99.90
13052;DHT22;6592;47.484;9.726;2023-01-04T12:50:26;9.00;99.90
13052;DHT22;6592;47.484;9.726;2023-01-04T12:52:59;8.90;99.90
13052;DHT22;6592;47.484;9.726;2023-01-04T12:55:54;8.90;99.90
13052;DHT22;6592;47.484;9.726;2023-01-04T12:58:40;8.80;99.90
13052;DHT22;6592;47.484;9.726;2023-01-04T13:01:30;8.90;99.90
13052;DHT22;6592;47.484;9.726;2023-01-04T13:04:00;8.90;99.90
13052;DHT22;6592;47.484;9.726;2023-01-04T13:06:38;8.90;99.90
13052;DHT22;6592;47.484;9.726;2023-01-04T13:09:16;8.90;99.90
13052;DHT22;6592;47.484;9.726;2023-01-04T13:12:13;8.90;99.90
13052;DHT22;6592;47.484;9.726;2023-01-04T13:14:45;8.90;99.90
13052;DHT22;6592;47.484;9.726;2023-01-04T13:17:19;8.90;99.90
13052;DHT22;6592;47.484;9.726;2023-01-04T13:19:48;9.00;99.90
13052;DHT22;6592;47.484;9.726;2023-01-04T13:22:23;9.10;99.90
13052;DHT22;6592;47.484;9.726;2023-01-04T13:24:56;9.20;99.90
13052;DHT22;6592;47.484;9.726;2023-01-04T13:27:26;9.20;99.90
13052;DHT22;6592;47.484;9.726;2023-01-04T13:29:54;9.30;99.90
13052;DHT22;6592;47.484;9.726;2023-01-04T13:32:25;9.30;99.90
13052;DHT22;6592;47.484;9.726;2023-01-04T13:34:56;9.30;99.90
13052;DHT22;6592;47.484;9.726;2023-01-04T13:37:28;9.30;99.90
13052;DHT22;6592;47.484;9.726;2023-01-04T13:40:15;9.30;99.90
13052;DHT22;6592;47.484;9.726;2023-01-04T13:42:46;9.30;99.90
13052;DHT22;6592;47.484;9.726;2023-01-04T13:45:31;9.30;99.90
13052;DHT22;6592;47.484;9.726;2023-01-04T13:48:09;9.40;99.90
13052;DHT22;6592;47.484;9.726;2023-01-04T13:50:39;9.40;99.90
13052;DHT22;6592;47.484;9.726;2023-01-04T13:53:21;9.30;99.90
13052;DHT22;6592;47.484;9.726;2023-01-04T13:55:51;9.40;99.90
13052;DHT22;6592;47.484;9.726;2023-01-04T13:58:22;9.40;99.90
13052;DHT22;6592;47.484;9.726;2023-01-04T14:00:52;9.40;99.90
13052;DHT22;6592;47.484;9.726;2023-01-04T14:03:35;9.40;99.90
13052;DHT22;6592;47.484;9.726;2023-01-04T14:06:20;9.40;99.90
13052;DHT22;6592;47.484;9.726;2023-01-04T14:08:52;9.40;99.90
13052;DHT22;6592;47.484;9.726;2023-01-04T14:11:25;9.30;99.90
13052;DHT22;6592;47.484;9.726;2023-01-04T14:14:23;9.20;99.90
13052;DHT22;6592;47.484;9.726;2023-01-04T14:17:20;9.20;99.90
13052;DHT22;6592;47.484;9.726;2023-01-04T14:19:53;9.20;99.90
13052;DHT22;6592;47.484;9.726;2023-01-04T14:22:33;9.20;99.90
13052;DHT22;6592;47.484;9.726;2023-01-04T14:28:38;9.10;99.90
13052;DHT22;6592;47.484;9.726;2023-01-04T14:31:30;9.10;99.90
13052;DHT22;6592;47.484;9.726;2023-01-04T14:34:10;9.10;99.90
13052;DHT22;6592;47.484;9.726;2023-01-04T14:36:42;9.10;99.90
13052;DHT22;6592;47.484;9.726;2023-01-04T14:39:30;9.20;99.90
13052;DHT22;6592;47.484;9.726;2023-01-04T14:41:59;9.20;99.90
13052;DHT22;6592;47.484;9.726;2023-01-04T14:44:29;9.10;99.90
13052;DHT22;6592;47.484;9.726;2023-01-04T14:47:00;9.10;99.90
13052;DHT22;6592;47.484;9.726;2023-01-04T14:49:32;9.00;99.90
13052;DHT22;6592;47.484;9.726;2023-01-04T14:52:07;9.00;99.90
13052;DHT22;6592;47.484;9.726;2023-01-04T14:54:36;9.00;99.90
13052;DHT22;6592;47.484;9.726;2023-01-04T14:57:05;8.90;99.90
13052;DHT22;6592;47.484;9.726;2023-01-04T14:59:34;8.90;99.90
13052;DHT22;6592;47.484;9.726;2023-01-04T15:02:02;8.90;99.90
13052;DHT22;6592;47.484;9.726;2023-01-04T15:04:30;9.00;99.90
13052;DHT22;6592;47.484;9.726;2023-01-04T15:07:01;9.10;99.90
13052;DHT22;6592;47.484;9.726;2023-01-04T15:09:29;9.10;99.90
13052;DHT22;6592;47.484;9.726;2023-01-04T15:11:58;9.10;99.90
13052;DHT22;6592;47.484;9.726;2023-01-04T15:14:26;9.10;99.90
13052;DHT22;6592;47.484;9.726;2023-01-04T15:16:54;9.10;99.90
13052;DHT22;6592;47.484;9.726;2023-01-04T15:19:22;9.10;99.90
13052;DHT22;6592;47.484;9.726;2023-01-04T15:21:51;9.00;99.90
13052;DHT22;6592;47.484;9.726;2023-01-04T15:24:21;9.10;99.90
13052;DHT22;6592;47.484;9.726;2023-01-04T15:26:49;9.00;99.90
13052;DHT22;6592;47.484;9.726;2023-01-04T15:29:18;9.00;99.90
13052;DHT22;6592;47.484;9.726;2023-01-04T15:31:47;9.10;99.90
13052;DHT22;6592;47.484;9.726;2023-01-04T15:34:15;9.10;99.90
13052;DHT22;6592;47.484;9.726;2023-01-04T15:36:43;9.10;99.90
13052;DHT22;6592;47.484;9.726;2023-01-04T15:39:12;9.20;99.90
13052;DHT22;6592;47.484;9.726;2023-01-04T15:41:42;9.10;99.90
13052;DHT22;6592;47.484;9.726;2023-01-04T15:44:28;9.10;99.90
13052;DHT22;6592;47.484;9.726;2023-01-04T15:46:57;9.10;99.90
13052;DHT22;6592;47.484;9.726;2023-01-04T15:49:27;9.10;99.90
13052;DHT22;6592;47.484;9.726;2023-01-04T15:51:56;9.10;99.90
13052;DHT22;6592;47.484;9.726;2023-01-04T15:54:25;9.20;99.90
13052;DHT22;6592;47.484;9.726;2023-01-04T15:56:55;9.40;99.90
13052;DHT22;6592;47.484;9.726;2023-01-04T15:59:24;9.50;99.90
13052;DHT22;6592;47.484;9.726;2023-01-04T16:01:53;9.50;99.90
13052;DHT22;6592;47.484;9.726;2023-01-04T16:04:21;9.50;99.90
13052;DHT22;6592;47.484;9.726;2023-01-04T16:06:50;9.50;99.90
13052;DHT22;6592;47.484;9.726;2023-01-04T16:09:19;9.60;99.90
13052;DHT22;6592;47.484;9.726;2023-01-04T16:11:48;9.50;99.90
13052;DHT22;6592;47.484;9.726;2023-01-04T16:14:35;9.50;99.90
13052;DHT22;6592;47.484;9.726;2023-01-04T16:17:03;9.50;99.90
13052;DHT22;6592;47.484;9.726;2023-01-04T16:19:31;9.50;99.90
13052;DHT22;6592;47.484;9.726;2023-01-04T16:22:00;9.40;99.90
13052;DHT22;6592;47.484;9.726;2023-01-04T16:24:28;9.40;99.90
13052;DHT22;6592;47.484;9.726;2023-01-04T16:27:17;9.30;99.90
13052;DHT22;6592;47.484;9.726;2023-01-04T16:29:47;9.30;99.90
13052;DHT22;6592;47.484;9.726;2023-01-04T16:32:17;9.30;99.90
13052;DHT22;6592;47.484;9.726;2023-01-04T16:34:45;9.30;99.90
13052;DHT22;6592;47.484;9.726;2023-01-04T16:37:15;9.20;99.90
13052;DHT22;6592;47.484;9.726;2023-01-04T16:39:44;9.20;99.90
13052;DHT22;6592;47.484;9.726;2023-01-04T16:42:32;9.20;99.90
13052;DHT22;6592;47.484;9.726;2023-01-04T16:45:04;9.30;99.90
13052;DHT22;6592;47.484;9.726;2023-01-04T16:47:37;9.20;99.90
13052;DHT22;6592;47.484;9.726;2023-01-04T16:50:07;9.20;99.90
13052;DHT22;6592;47.484;9.726;2023-01-04T16:52:37;9.20;99.90
13052;DHT22;6592;47.484;9.726;2023-01-04T16:55:07;9.30;99.90
13052;DHT22;6592;47.484;9.726;2023-01-04T16:57:37;9.30;99.90
13052;DHT22;6592;47.484;9.726;2023-01-04T17:00:09;9.40;99.90
13052;DHT22;6592;47.484;9.726;2023-01-04T17:02:38;9.30;99.90